Flight Track Log - Related Links

Times and Time Zones

All times are in EDT time to prevent confusion due to time zone crossing. See the BAW228 flight status page for this flight to view local times or setup timezone preferences in your user account.

Time Position Orientation Groundspeed Altitude Reporting Facility
EDT Latitude Longitude Course Direction KTS MPH feet Rate Location/Type
Sat 09:43:54 PM 39.1230 -76.7340 153° Southeast 272 313 3,000  Level FlightAware ADS-B
Sat 09:44:09 PM 39.1060 -76.7150 139° Southeast 288 331 3,500 2,200 Climbing FlightAware ADS-B
Sat 09:44:24 PM 39.0970 -76.6920 117° Southeast 291 335 4,100 2,538 Climbing FlightAware ADS-B
Sat 09:44:35 PM 39.0950 -76.6770 100° East 286 329 4,600 2,791 Climbing FlightAware ADS-B
Sat 09:45:07 PM 39.1010 -76.6300 81° East 284 327 6,100 3,051 Climbing FlightAware ADS-B
Sat 09:45:34 PM 39.1070 -76.5740 82° East 286 329 7,600 3,158 Climbing FlightAware ADS-B
Sat 09:46:04 PM 39.1140 -76.5230 80° East 288 331 9,100 3,000 Climbing FlightAware ADS-B
Sat 09:46:14 PM 39.1159 -76.5064 82° East 290 334 9,600 2,250 Climbing FlightAware ADS-B
Sat 09:46:44 PM 39.1233 -76.4543 80° East 308 354 10,600 1,672 Climbing FlightAware ADS-B
Sat 09:47:15 PM 39.1313 -76.3954 80° East 339 390 11,300 1,279 Climbing FlightAware ADS-B
Sat 09:47:45 PM 39.1397 -76.3329 80° East 368 423 11,900 1,400 Climbing FlightAware ADS-B
Sat 09:48:15 PM 39.1482 -76.2660 81° East 387 445 12,700 2,000 Climbing FlightAware ADS-B
Sat 09:48:45 PM 39.1569 -76.1941 81° East 398 458 13,900 2,262 Climbing FlightAware ADS-B
Sat 09:49:16 PM 39.1651 -76.1228 82° East 409 471 15,000 1,770 Climbing FlightAware ADS-B
Sat 09:49:46 PM 39.1737 -76.0485 81° East 425 489 15,700 1,475 Climbing FlightAware ADS-B
Sat 09:50:17 PM 39.1826 -75.9698 82° East 435 501 16,500 1,674 Climbing FlightAware ADS-B
Sat 09:50:29 PM 39.1862 -75.9390 81° East 437 503 16,900 2,000 Climbing FlightAware ADS-B
Sat 09:50:35 PM 39.1888 -75.9238 78° East 436 502 17,100 1,500 Climbing FlightAware ADS-B
Sat 09:50:41 PM 39.1923 -75.9087 73° East 434 499 17,200 1,286 Climbing FlightAware ADS-B
Sat 09:50:49 PM 39.1980 -75.8896 69° East 430 495 17,400 1,800 Climbing FlightAware ADS-B
Sat 09:51:01 PM 39.2089 -75.8624 63° Northeast 429 494 17,800 1,895 Climbing FlightAware ADS-B
Sat 09:51:08 PM 39.2167 -75.8471 57° Northeast 428 493 18,000 1,600 Climbing FlightAware ADS-B
Sat 09:51:16 PM 39.2259 -75.8309 54° Northeast 425 489 18,200 2,182 Climbing FlightAware ADS-B
Sat 09:51:30 PM 39.2445 -75.8045 48° Northeast 422 486 18,800 1,941 Climbing FlightAware ADS-B
Sat 09:51:50 PM 39.2689 -75.7646 52° Northeast 429 494 19,300 1,610 Climbing FlightAware ADS-B
Sat 09:52:11 PM 39.2963 -75.7235 49° Northeast 432 497 19,900 1,765 Climbing FlightAware ADS-B
Sat 09:52:41 PM 39.3383 -75.6673 46° Northeast 436 502 20,800 1,770 Climbing FlightAware ADS-B
Sat 09:53:12 PM 39.3815 -75.6092 46° Northeast 440 506 21,700 1,770 Climbing FlightAware ADS-B
Sat 09:53:42 PM 39.4252 -75.5521 45° Northeast 446 513 22,600 1,800 Climbing FlightAware ADS-B
Sat 09:54:12 PM 39.4688 -75.4924 47° Northeast 450 518 23,500 1,672 Climbing FlightAware ADS-B
Sat 09:54:43 PM 39.5128 -75.4342 46° Northeast 454 522 24,300 1,574 Climbing FlightAware ADS-B
Sat 09:55:13 PM 39.5571 -75.3754 46° Northeast 458 527 25,100 1,600 Climbing FlightAware ADS-B
Sat 09:55:43 PM 39.6020 -75.3151 46° Northeast 464 534 25,900 1,500 Climbing FlightAware ADS-B
Sat 09:56:13 PM 39.6466 -75.2540 47° Northeast 468 539 26,600 1,869 Climbing FlightAware ADS-B
Sat 09:56:44 PM 39.6922 -75.1909 47° Northeast 462 532 27,800 2,361 Climbing FlightAware ADS-B
Sat 09:57:14 PM 39.7362 -75.1290 47° Northeast 453 521 29,000 2,262 Climbing FlightAware ADS-B
Sat 09:57:45 PM 39.7797 -75.0706 46° Northeast 448 516 30,100 1,839 Climbing FlightAware ADS-B
Sat 09:58:16 PM 39.8237 -75.0102 47° Northeast 449 517 30,900 1,588 Climbing FlightAware ADS-B
Sat 09:58:53 PM 39.8771 -74.9378 46° Northeast 447 514 31,900 1,324 Climbing FlightAware ADS-B
Sat 09:59:24 PM 39.9211 -74.8773 47° Northeast 449 517 32,400 885 Climbing FlightAware ADS-B
Sat 09:59:54 PM 39.9647 -74.8184 46° Northeast 454 522 32,800 590 Climbing FlightAware ADS-B
Sat 10:00:25 PM 40.0091 -74.7562 47° Northeast 462 532 33,000 197 Climbing FlightAware ADS-B
Sat 10:00:55 PM 40.0532 -74.6953 47° Northeast 463 533 33,000  Level FlightAware ADS-B
Sat 10:01:25 PM 40.0977 -74.6344 46° Northeast 464 534 33,000  Level FlightAware ADS-B
Sat 10:01:56 PM 40.1433 -74.5713 47° Northeast 463 533 33,000  Level FlightAware ADS-B
Sat 10:02:26 PM 40.1879 -74.5106 46° Northeast 460 529 33,000  Level FlightAware ADS-B
Sat 10:02:56 PM 40.2328 -74.4477 47° Northeast 463 533 33,000  Level FlightAware ADS-B
Sat 10:03:28 PM 40.2789 -74.3844 46° Northeast 464 534 33,000  Level FlightAware ADS-B
Sat 10:03:59 PM 40.3249 -74.3208 46° Northeast 466 536 33,000  Level FlightAware ADS-B
Sat 10:04:30 PM 40.3708 -74.2570 47° Northeast 468 539 33,000  Level FlightAware ADS-B
Sat 10:05:00 PM 40.4155 -74.1949 47° Northeast 470 541 33,000  Level FlightAware ADS-B
Sat 10:05:30 PM 40.4604 -74.1324 47° Northeast 470 541 33,000  Level FlightAware ADS-B
Sat 10:06:00 PM 40.5055 -74.0679 47° Northeast 469 540 33,000  Level FlightAware ADS-B
Sat 10:06:31 PM 40.5507 -74.0058 46° Northeast 469 540 33,000  Level FlightAware ADS-B
Sat 10:07:03 PM 40.5990 -73.9368 47° Northeast 470 541 33,000  Level FlightAware ADS-B
Sat 10:07:33 PM 40.6438 -73.8741 47° Northeast 471 542 33,000  Level FlightAware ADS-B
Sat 10:08:05 PM 40.6902 -73.8086 47° Northeast 472 543 33,000  Level FlightAware ADS-B
Sat 10:08:35 PM 40.7354 -73.7456 47° Northeast 471 542 33,000  Level FlightAware ADS-B
Sat 10:09:06 PM 40.7816 -73.6804 47° Northeast 472 543 33,000  Level FlightAware ADS-B
Sat 10:09:36 PM 40.8265 -73.6151 48° Northeast 471 542 33,000  Level FlightAware ADS-B
Sat 10:10:07 PM 40.8724 -73.5501 47° Northeast 469 540 33,000  Level FlightAware ADS-B
Sat 10:10:36 PM 40.9146 -73.4913 46° Northeast 468 539 33,000  Level FlightAware ADS-B
Sat 10:11:07 PM 40.9601 -73.4260 47° Northeast 467 537 33,000  Level FlightAware ADS-B
Sat 10:11:39 PM 41.0064 -73.3590 48° Northeast 466 536 33,000  Level FlightAware ADS-B
Sat 10:12:10 PM 41.0519 -73.2939 47° Northeast 467 537 33,000  Level FlightAware ADS-B
Sat 10:12:41 PM 41.0971 -73.2286 47° Northeast 467 537 33,000  Level FlightAware ADS-B
Sat 10:13:11 PM 41.1417 -73.1632 48° Northeast 468 539 33,000  Level FlightAware ADS-B
Sat 10:13:41 PM 41.1862 -73.0996 47° Northeast 471 542 33,000  Level FlightAware ADS-B
Sat 10:14:16 PM 41.2376 -73.0273 47° Northeast 473 544 33,000  Level FlightAware ADS-B
Sat 10:14:48 PM 41.2852 -72.9589 47° Northeast 473 544 33,000  Level FlightAware ADS-B
Sat 10:15:21 PM 41.3337 -72.8882 48° Northeast 476 548 33,000  Level FlightAware ADS-B
Sat 10:15:52 PM 41.3799 -72.8218 47° Northeast 476 548 33,000  Level FlightAware ADS-B
Sat 10:16:27 PM 41.4322 -72.7464 47° Northeast 476 548 33,000  Level FlightAware ADS-B
Sat 10:17:00 PM 41.4830 -72.6730 47° Northeast 477 549 33,000  Level FlightAware ADS-B
Sat 10:17:39 PM 41.5390 -72.5900 48° Northeast 477 549 33,000  Level FlightAware ADS-B
Sat 10:18:25 PM 41.6050 -72.4940 47° Northeast 475 547 33,000  Level FlightAware ADS-B
Sat 10:19:06 PM 41.6680 -72.4010 48° Northeast 475 547 33,000  Level FlightAware ADS-B
Sat 10:19:51 PM 41.7310 -72.3070 48° Northeast 475 547 33,000  Level FlightAware ADS-B
Sat 10:20:31 PM 41.7910 -72.2170 48° Northeast 475 547 33,000  Level FlightAware ADS-B
Sat 10:21:15 PM 41.8560 -72.1180 49° Northeast 473 544 33,000  Level FlightAware ADS-B
Sat 10:21:55 PM 41.9160 -72.0300 47° Northeast 473 544 33,000  Level FlightAware ADS-B
Sat 10:22:37 PM 41.9750 -71.9400 49° Northeast 474 545 33,000  Level FlightAware ADS-B
Sat 10:23:17 PM 42.0350 -71.8490 48° Northeast 475 547 33,000  Level FlightAware ADS-B
Sat 10:24:01 PM 42.0990 -71.7520 48° Northeast 473 544 33,000  Level FlightAware ADS-B
Sat 10:24:41 PM 42.1570 -71.6660 48° Northeast 473 544 33,000  Level FlightAware ADS-B
Sat 10:25:21 PM 42.2140 -71.5780 49° Northeast 473 544 33,000  Level FlightAware ADS-B
Sat 10:26:07 PM 42.2830 -71.4750 48° Northeast 473 544 33,000  Level FlightAware ADS-B
Sat 10:26:49 PM 42.3420 -71.3850 48° Northeast 473 544 33,000  Level FlightAware ADS-B
Sat 10:27:31 PM 42.4040 -71.2890 49° Northeast 473 544 33,000  Level FlightAware ADS-B
Sat 10:28:13 PM 42.4650 -71.1980 48° Northeast 475 547 33,000  Level FlightAware ADS-B
Sat 10:28:55 PM 42.5280 -71.1020 48° Northeast 476 548 33,000  Level FlightAware ADS-B
Sat 10:29:39 PM 42.5910 -71.0030 49° Northeast 477 549 33,000  Level FlightAware ADS-B
Sat 10:30:19 PM 42.6490 -70.9130 49° Northeast 479 551 33,000  Level FlightAware ADS-B
Sat 10:31:43 PM 42.7710 -70.7210 49° Northeast 480 552 33,000  Level FlightAware ADS-B
Sat 10:32:27 PM 42.8350 -70.6190 49° Northeast 481 554 33,000  Level FlightAware ADS-B
Sat 10:33:07 PM 42.8920 -70.5260 50° Northeast 483 556 33,000  Level FlightAware ADS-B
Sat 10:33:51 PM 42.9550 -70.4260 49° Northeast 486 559 33,000  Level FlightAware ADS-B
Sat 10:34:31 PM 43.0140 -70.3290 50° Northeast 492 566 33,000  Level FlightAware ADS-B
Sat 10:35:15 PM 43.0810 -70.2220 49° Northeast 497 572 33,000  Level FlightAware ADS-B
Sat 10:35:55 PM 43.1400 -70.1290 49° Northeast 498 573 33,000  Level FlightAware ADS-B
Sat 10:36:39 PM 43.2050 -70.0250 49° Northeast 500 575 33,000  Level FlightAware ADS-B
Sat 10:37:21 PM 43.2690 -69.9220 50° Northeast 499 574 33,000  Level FlightAware ADS-B
Sat 10:38:01 PM 43.3290 -69.8250 50° Northeast 498 573 33,000  Level FlightAware ADS-B
Sat 10:38:43 PM 43.3930 -69.7220 49° Northeast 497 572 33,000  Level FlightAware ADS-B
Sat 10:39:25 PM 43.4520 -69.6280 49° Northeast 496 571 33,000  Level FlightAware ADS-B
Sat 10:40:09 PM 43.5170 -69.5220 50° Northeast 496 571 33,000  Level FlightAware ADS-B
Sat 10:40:44 PM 43.5700 -69.4350 50° Northeast 496 571 33,000  Level FlightAware ADS-B
Sat 10:41:29 PM 43.6350 -69.3280 50° Northeast 491 565 33,000  Level FlightAware ADS-B
Sat 10:42:09 PM 43.6950 -69.2280 50° Northeast 490 564 33,000  Level FlightAware ADS-B
Sat 10:42:54 PM 43.7600 -69.1210 50° Northeast 490 564 33,000  Level FlightAware ADS-B
Sat 10:43:34 PM 43.8180 -69.0230 51° Northeast 488 562 33,000  Level FlightAware ADS-B
Sat 10:44:29 PM 43.8990 -68.8870 50° Northeast 487 560 33,000  Level FlightAware ADS-B
Sat 10:45:09 PM 43.9540 -68.7920 51° Northeast 487 560 33,000  Level FlightAware ADS-B
Sat 10:45:58 PM 44.0280 -68.6680 50° Northeast 491 565 33,000  Level FlightAware ADS-B
Sat 10:46:37 PM 44.0840 -68.5730 51° Northeast 490 564 33,000  Level FlightAware ADS-B
Sat 10:47:15 PM 44.1400 -68.4810 50° Northeast 490 564 33,000  Level FlightAware ADS-B
Sat 10:48:04 PM 44.2090 -68.3640 51° Northeast 487 560 33,000  Level FlightAware ADS-B
Sat 10:48:43 PM 44.2640 -68.2730 50° Northeast 485 558 33,000  Level FlightAware ADS-B
Sat 10:49:29 PM 44.3300 -68.1560 52° Northeast 483 556 33,000  Level FlightAware ADS-B
Sat 10:50:09 PM 44.3870 -68.0590 51° Northeast 480 552 33,000  Level FlightAware ADS-B
Sat 10:50:47 PM 44.4390 -67.9680 51° Northeast 479 551 33,000  Level FlightAware ADS-B
Sat 10:51:35 PM 44.5060 -67.8520 51° Northeast 476 548 33,000  Level FlightAware ADS-B
Sat 10:52:14 PM 44.5600 -67.7580 51° Northeast 476 548 33,000  Level FlightAware ADS-B
Sat 10:52:58 PM 44.6210 -67.6520 51° Northeast 478 550 33,000  Level FlightAware ADS-B
Sat 10:53:39 PM 44.6780 -67.5530 51° Northeast 480 552 33,000  Level FlightAware ADS-B
Sat 10:54:19 PM 44.7320 -67.4600 51° Northeast 483 556 33,000  Level FlightAware ADS-B
Sat 10:55:03 PM 44.7940 -67.3500 52° Northeast 486 559 33,000  Level FlightAware ADS-B
Sat 10:55:47 PM 44.8560 -67.2400 51° Northeast 487 560 33,000  Level FlightAware ADS-B
Sat 10:56:27 PM 44.9170 -67.1410 49° Northeast 503 579 33,000  Level FlightAware ADS-B
Sat 10:57:09 PM 44.9900 -67.0530 40° Northeast 507 583 33,000  Level FlightAware ADS-B
Sat 10:57:48 PM 45.0620 -66.9670 40° Northeast 511 588 33,000  Level FlightAware ADS-B
Sat 10:58:33 PM 45.1440 -66.8690 40° Northeast 514 592 33,000  Level FlightAware ADS-B
Sat 10:59:13 PM 45.2190 -66.7810 40° Northeast 512 589 33,000  Level FlightAware ADS-B
Sat 10:59:53 PM 45.2910 -66.6960 40° Northeast 519 597 33,000  Level FlightAware ADS-B
Sat 11:00:39 PM 45.3760 -66.5930 40° Northeast 513 590 33,000  Level FlightAware ADS-B
Sat 11:01:18 PM 45.4480 -66.5070 40° Northeast 513 590 33,000  Level FlightAware ADS-B
Sat 11:01:59 PM 45.5230 -66.4170 40° Northeast 513 590 33,000  Level FlightAware ADS-B
Sat 11:02:43 PM 45.6040 -66.3190 40° Northeast 513 590 33,000  Level FlightAware ADS-B
Sat 11:03:28 PM 45.6860 -66.2190 40° Northeast 510 587 33,000  Level FlightAware ADS-B
Sat 11:04:08 PM 45.7580 -66.1330 40° Northeast 494 568 33,000  Level FlightAware ADS-B
Sat 11:04:53 PM 45.8360 -66.0370 41° Northeast 491 565 33,000  Level FlightAware ADS-B
Sat 11:05:49 PM 45.9340 -65.9160 41° Northeast 499 574 33,000  Level FlightAware ADS-B
Sat 11:06:29 PM 46.0050 -65.8270 41° Northeast 499 574 33,000  Level FlightAware ADS-B
Sat 11:07:13 PM 46.0800 -65.7360 40° Northeast 501 577 33,000  Level FlightAware ADS-B
Sat 11:07:54 PM 46.1450 -65.6590 39° Northeast 501 577 33,000  Level FlightAware ADS-B
Sat 11:08:35 PM 46.2150 -65.5690 42° Northeast 502 578 33,000  Level FlightAware ADS-B
Sat 11:09:11 PM 46.2690 -65.5030 40° Northeast 502 578 33,000  Level FlightAware ADS-B
Sat 11:09:59 PM 46.3420 -65.4150 40° Northeast 502 578 33,000  Level FlightAware ADS-B
Sat 11:10:34 PM 46.3950 -65.3510 40° Northeast 502 578 33,000  Level FlightAware ADS-B
Sat 11:11:23 PM 46.4690 -65.2610 40° Northeast 502 578 33,000  Level FlightAware ADS-B
Sat 11:12:00 PM 46.5250 -65.1920 40° Northeast 502 578 33,000  Level FlightAware ADS-B
Sat 11:12:49 PM 46.5990 -65.1020 40° Northeast 502 578 33,000  Level FlightAware ADS-B
Sat 11:13:25 PM 46.6530 -65.0350 40° Northeast 502 578 33,000  Level FlightAware ADS-B
Sat 11:14:13 PM 46.7260 -64.9470 40° Northeast 502 578 33,000  Level FlightAware ADS-B
Sat 11:14:49 PM 46.7800 -64.8800 40° Northeast 502 578 33,000  Level FlightAware ADS-B
Sat 11:15:37 PM 46.8530 -64.7910 40° Northeast 502 578 33,000  Level FlightAware ADS-B
Sat 11:16:25 PM 46.9260 -64.7020 40° Northeast 502 578 33,000  Level FlightAware ADS-B
Sat 11:17:01 PM 46.9800 -64.6350 40° Northeast 502 578 33,000  Level FlightAware ADS-B
Sat 11:17:50 PM 47.0540 -64.5440 40° Northeast 502 578 33,000  Level FlightAware ADS-B
Sat 11:18:05 PM 47.2000 -64.2833 40° Northeast 500 575 33,000  Level Gander Center
Sat 11:18:31 PM 47.2333 -64.2333 46° Northeast 500 575 33,000  Level Gander Center
Sat 11:19:17 PM 47.3167 -64.1333 39° Northeast 500 575 33,000  Level Moncton Center
Sat 11:20:17 PM 47.4333 -63.9833 41° Northeast 500 575 33,000  Level Moncton Center
Sat 11:21:17 PM 47.5333 -63.8500 42° Northeast 500 575 33,000  Level Moncton Center
Sat 11:22:17 PM 47.6333 -63.7000 45° Northeast 500 575 33,000  Level Moncton Center
Sat 11:23:17 PM 47.7500 -63.5500 41° Northeast 510 587 33,000  Level Moncton Center
Sat 11:24:17 PM 47.8500 -63.4167 42° Northeast 510 587 33,000  Level Moncton Center
Sat 11:25:17 PM 47.9500 -63.2667 45° Northeast 510 587 33,000  Level Moncton Center
Sat 11:26:17 PM 48.0500 -63.1500 38° Northeast 510 587 33,000  Level Moncton Center
Sat 11:27:17 PM 48.1667 -62.9833 44° Northeast 510 587 33,000  Level Moncton Center
Sat 11:28:17 PM 48.2667 -62.8333 45° Northeast 510 587 33,000  Level Moncton Center
Sat 11:29:17 PM 48.3667 -62.7000 42° Northeast 500 575 33,000  Level Moncton Center
Sat 11:30:17 PM 48.4667 -62.5500 45° Northeast 500 575 33,000  Level Moncton Center
Sat 11:31:17 PM 48.5667 -62.4000 45° Northeast 500 575 33,000  Level Moncton Center
Sat 11:32:17 PM 48.6667 -62.2667 41° Northeast 500 575 33,000  Level Moncton Center
Sat 11:33:17 PM 48.7667 -62.1333 41° Northeast 500 575 33,000  Level Moncton Center
Sat 11:34:17 PM 48.8667 -61.9833 45° Northeast 500 575 33,000  Level Moncton Center
Sat 11:35:17 PM 48.9833 -61.8167 43° Northeast 500 575 33,000  Level Moncton Center
Sat 11:36:17 PM 49.0667 -61.6667 50° Northeast 510 587 33,000  Level Moncton Center
Sat 11:37:17 PM 49.1833 -61.5333 37° Northeast 500 575 33,000  Level Moncton Center
Sat 11:38:17 PM 49.2833 -61.3667 47° Northeast 510 587 33,000  Level Moncton Center
Sat 11:39:17 PM 49.3833 -61.2333 41° Northeast 510 587 33,000  Level Moncton Center
Sat 11:40:17 PM 49.4833 -61.0667 47° Northeast 510 587 33,000  Level Moncton Center
Sat 11:41:17 PM 49.5833 -60.9167 44° Northeast 510 587 33,000  Level Moncton Center
Sat 11:42:17 PM 49.6833 -60.7667 44° Northeast 510 587 33,000  Level Moncton Center
Sat 11:43:17 PM 49.8000 -60.6167 40° Northeast 520 598 33,000  Level Moncton Center
Sat 11:44:17 PM 49.9000 -60.4500 47° Northeast 520 598 33,000  Level Moncton Center
Sat 11:45:17 PM 50.0000 -60.3000 44° Northeast 520 598 33,000  Level Moncton Center
Sat 11:46:17 PM 50.1000 -60.1333 47° Northeast 520 598 33,000  Level Moncton Center
Sat 11:47:17 PM 50.2167 -59.9667 42° Northeast 520 598 33,000  Level Moncton Center
Sat 11:48:17 PM 50.3000 -59.8167 49° Northeast 530 610 33,000  Level Moncton Center
Sat 11:49:17 PM 50.4167 -59.6333 45° Northeast 520 598 33,000  Level Moncton Center
Sat 11:50:17 PM 50.5167 -59.4667 47° Northeast 520 598 33,000  Level Moncton Center
Sat 11:51:17 PM 50.6167 -59.3333 40° Northeast 520 598 33,000  Level Moncton Center
Sat 11:52:17 PM 50.7167 -59.1667 47° Northeast 520 598 33,000  Level Moncton Center
Sat 11:53:17 PM 50.8000 -58.9833 54° Northeast 520 598 33,000  Level Moncton Center
Sat 11:54:17 PM 50.9000 -58.8167 46° Northeast 520 598 33,000  Level Moncton Center
Sat 11:55:05 PM 50.9833 -58.6500 52° Northeast 520 598 33,000  Level Gander Center
Sat 11:55:31 PM 51.0000 -58.6000 62° Northeast 520 598 33,000 767 Level Gander Center
Sat 11:56:31 PM 51.1000 -58.4000 51° Northeast 520 598 34,100 1,200 Climbing Gander Center
Sat 11:57:31 PM 51.2000 -58.2167 49° Northeast 520 598 35,400 1,075 Climbing Gander Center
Sat 11:58:17 PM 51.2667 -58.0833 51° Northeast 520 598 36,000 340 Climbing Moncton Center
Sat 11:59:17 PM 51.3500 -57.8833 56° Northeast 520 598 36,000  Level Moncton Center
Sun 12:00:17 AM 51.4500 -57.7000 49° Northeast 520 598 36,000  Level Moncton Center
Sun 12:01:05 AM 51.5167 -57.5500 54° Northeast 520 598 36,000  Level Gander Center
Sun 12:01:31 AM 51.5500 -57.4667 57° Northeast 520 598 36,000  Level Gander Center
Sun 12:02:31 AM 51.6333 -57.2667 56° Northeast 520 598 36,000  Level Gander Center
Sun 12:03:05 AM 51.6833 -57.1833 46° Northeast 520 598 36,000  Level Gander Center
Sun 12:03:31 AM 51.7333 -57.1000 46° Northeast 530 610 36,000  Level Gander Center
Sun 12:04:31 AM 51.8167 -56.9333 51° Northeast 530 610 36,000  Level Gander Center
Sun 12:05:05 AM 51.8500 -56.8167 65° Northeast 530 610 36,000  Level Gander Center
Sun 12:06:05 AM 51.9500 -56.6167 51° Northeast 530 610 36,000  Level Gander Center
Sun 12:06:31 AM 52.0000 -56.5333 46° Northeast 530 610 36,000  Level Gander Center
Sun 12:07:31 AM 52.0667 -56.3333 61° Northeast 530 610 36,000  Level Gander Center
Sun 12:08:05 AM 52.1333 -56.2167 47° Northeast 530 610 36,000  Level Gander Center
Sun 12:08:31 AM 52.1667 -56.1500 51° Northeast 530 610 36,000  Level Gander Center
Sun 12:09:17 AM 52.2333 -56.0000 54° Northeast 530 610 36,000  Level Moncton Center
Sun 12:10:17 AM 52.3167 -55.8000 56° Northeast 530 610 36,000  Level Moncton Center
Sun 12:11:17 AM 52.4000 -55.6167 53° Northeast 530 610 36,000  Level Moncton Center
Sun 12:12:17 AM 52.4833 -55.4000 58° Northeast 540 621 36,000  Level Moncton Center
Sun 12:13:17 AM 52.5833 -55.2167 48° Northeast 530 610 36,000  Level Moncton Center
Sun 12:14:17 AM 52.6667 -55.0000 58° Northeast 540 621 36,000  Level Moncton Center
Sun 12:15:05 AM 52.7333 -54.8500 54° Northeast 530 610 36,000  Level Gander Center
Sun 12:15:31 AM 52.7667 -54.7500 61° Northeast 540 621 36,000  Level Gander Center
Sun 12:16:31 AM 52.8500 -54.5500 55° Northeast 540 621 36,000  Level Gander Center
Sun 12:17:31 AM 52.9333 -54.3667 53° Northeast 530 610 36,000  Level Gander Center
Sun 12:18:31 AM 53.0167 -54.1667 55° Northeast 530 610 36,000  Level Gander Center
Sun 12:19:00 AM 53.0667 -54.0667 67° East 518 596 36,000  Level ETMS Enhanced Traffic Management System
Sun 12:19:31 AM 53.0833 -53.9500 63° Northeast 530 610 36,000  Level Gander Center
Sun 12:20:31 AM 53.1667 -53.7167 67° East 540 621 36,000  Level Gander Center
Sun 12:21:31 AM 53.2167 -53.4833 70° East 540 621 36,000  Level Gander Center
Sun 12:22:31 AM 53.2667 -53.2500 70° East 540 621 36,000  Level Gander Center
Sun 12:23:31 AM 53.3167 -53.0167 70° East 540 621 36,000  Level Gander Center
Sun 12:24:31 AM 53.3667 -52.7833 70° East 540 621 36,000  Level Gander Center
Sun 12:25:31 AM 53.4333 -52.5667 63° Northeast 540 621 36,000  Level Gander Center
Sun 12:26:31 AM 53.4833 -52.3333 70° East 540 621 36,000  Level Gander Center
Sun 12:27:05 AM 53.5167 -52.1833 69° East 540 621 36,000  Level Gander Center
Sun 12:27:31 AM 53.5333 -52.1000 71° East 540 621 36,000  Level Gander Center
Sun 12:28:31 AM 53.5833 -51.8667 70° East 540 621 36,000  Level Gander Center
Sun 12:29:31 AM 53.6333 -51.6167 71° East 540 621 36,000  Level Gander Center
Sun 12:30:05 AM 53.6667 -51.4667 69° East 540 621 36,000  Level Gander Center
Sun 12:31:05 AM 53.7167 -51.2333 70° East 540 621 36,000  Level Gander Center
Sun 12:32:05 AM 53.7667 -51.0000 70° East 540 621 36,000  Level Gander Center
Sun 12:33:05 AM 53.8333 -50.7500 66° East 550 633 36,000  Level Gander Center
Sun 12:33:31 AM 53.8333 -50.6667 90° East 550 633 36,000  Level Gander Center
Sun 12:34:05 AM 53.8500 -50.5167 79° East 540 621 36,000  Level Gander Center
Sun 12:34:31 AM 53.8833 -50.4167 60° Northeast 540 621 36,000  Level Gander Center
Sun 12:35:05 AM 53.9167 -50.2667 69° East 540 621 36,000  Level Gander Center
Sun 12:36:05 AM 53.9667 -50.0333 70° East 550 633 36,000  Level Gander Center
Sun 12:36:31 AM 53.9833 -49.9333 74° East 550 633 36,000  Level Gander Center
Sun 12:37:31 AM 54.0167 -49.6667 78° East 550 633 36,000  Level Gander Center
Sun 12:38:00 AM 54.0000 -50.0000 76° East 543 625 36,000  Level ETMS Enhanced Traffic Management System
Sun 12:45:00 AM 54.3345 -47.4854 78° East 543 625 36,000  Level FlightAware Transoceanic
Sun 12:46:00 AM 54.3651 -47.2318 78° East 543 625 36,000  Level FlightAware Transoceanic
Sun 12:47:00 AM 54.3951 -46.9778 79° East 543 625 36,000  Level FlightAware Transoceanic
Sun 12:48:00 AM 54.4246 -46.7234 79° East 543 625 36,000  Level FlightAware Transoceanic
Sun 12:49:00 AM 54.4536 -46.4686 79° East 543 625 36,000  Level FlightAware Transoceanic
Sun 12:50:00 AM 54.4820 -46.2135 79° East 543 625 36,000  Level FlightAware Transoceanic
Sun 12:51:00 AM 54.5099 -45.9581 79° East 543 625 36,000  Level FlightAware Transoceanic
Sun 12:52:00 AM 54.5372 -45.7023 80° East 543 625 36,000  Level FlightAware Transoceanic
Sun 12:53:00 AM 54.5640 -45.4462 80° East 543 625 36,000  Level FlightAware Transoceanic
Sun 12:54:00 AM 54.5903 -45.1897 80° East 543 625 36,000  Level FlightAware Transoceanic
Sun 12:55:00 AM 54.6160 -44.9329 80° East 543 625 36,000  Level FlightAware Transoceanic
Sun 12:56:00 AM 54.6412 -44.6758 81° East 543 625 36,000  Level FlightAware Transoceanic
Sun 12:57:00 AM 54.6658 -44.4183 81° East 543 625 36,000  Level FlightAware Transoceanic
Sun 12:58:00 AM 54.6899 -44.1606 81° East 543 625 36,000  Level FlightAware Transoceanic
Sun 12:59:00 AM 54.7134 -43.9025 81° East 543 625 36,000  Level FlightAware Transoceanic
Sun 01:00:00 AM 54.7364 -43.6442 81° East 543 625 36,000  Level FlightAware Transoceanic
Sun 01:01:00 AM 54.7588 -43.3856 82° East 543 625 36,000  Level FlightAware Transoceanic
Sun 01:02:00 AM 54.7807 -43.1267 82° East 543 625 36,000  Level FlightAware Transoceanic
Sun 01:03:00 AM 54.8020 -42.8675 82° East 543 625 36,000  Level FlightAware Transoceanic
Sun 01:04:00 AM 54.8228 -42.6080 82° East 543 625 36,000  Level FlightAware Transoceanic
Sun 01:05:00 AM 54.8430 -42.3483 82° East 543 625 36,000  Level FlightAware Transoceanic
Sun 01:06:00 AM 54.8627 -42.0883 83° East 543 625 36,000  Level FlightAware Transoceanic
Sun 01:07:00 AM 54.8818 -41.8281 83° East 543 625 36,000  Level FlightAware Transoceanic
Sun 01:08:00 AM 54.9004 -41.5676 83° East 543 625 36,000  Level FlightAware Transoceanic
Sun 01:09:00 AM 54.9184 -41.3069 83° East 543 625 36,000  Level FlightAware Transoceanic
Sun 01:10:00 AM 54.9358 -41.0459 83° East 543 625 36,000  Level FlightAware Transoceanic
Sun 01:11:00 AM 54.9527 -40.7848 84° East 543 625 36,000  Level FlightAware Transoceanic
Sun 01:12:00 AM 54.9690 -40.5234 84° East 543 625 36,000  Level FlightAware Transoceanic
Sun 01:13:00 AM 54.9848 -40.2618 84° East 543 625 36,000  Level FlightAware Transoceanic
Sun 01:14:00 AM 54.9988 -40.0206 84° East  Level FlightAware Approximate
Sun 01:15:00 AM 55.0123 -39.7792 84° East  Level FlightAware Approximate
Sun 01:16:00 AM 55.0081 -39.7993 86° East  Level FlightAware Approximate
Sun 01:17:00 AM 55.0173 -39.5573 86° East  Level FlightAware Approximate
Sun 01:18:00 AM 55.0261 -39.3151 86° East  Level FlightAware Approximate
Sun 01:19:00 AM 55.0344 -39.0729 86° East  Level FlightAware Approximate
Sun 01:20:00 AM 55.0423 -38.8305 87° East  Level FlightAware Approximate
Sun 01:21:00 AM 55.0496 -38.5881 87° East  Level FlightAware Approximate
Sun 01:22:00 AM 55.0565 -38.3456 87° East  Level FlightAware Approximate
Sun 01:23:00 AM 55.0629 -38.1030 87° East  Level FlightAware Approximate
Sun 01:23:00 AM 55.0000 -40.0000 86° East 557 641 36,000  Level ETMS Enhanced Traffic Management System
Sun 01:24:00 AM 55.0688 -37.8603 87° East  Level FlightAware Approximate
Sun 01:25:00 AM 55.0742 -37.6175 88° East  Level FlightAware Approximate
Sun 01:26:00 AM 55.0791 -37.3747 88° East  Level FlightAware Approximate
Sun 01:27:00 AM 55.0836 -37.1318 88° East  Level FlightAware Approximate
Sun 01:28:00 AM 55.0875 -36.8889 88° East  Level FlightAware Approximate
Sun 01:29:00 AM 55.0989 -35.9475 89° East 557 641 36,000  Level FlightAware Transoceanic
Sun 01:30:00 AM 55.1007 -35.6768 89° East 557 641 36,000  Level FlightAware Transoceanic
Sun 01:31:00 AM 55.1019 -35.4061 90° East 557 641 36,000  Level FlightAware Transoceanic
Sun 01:32:00 AM 55.1025 -35.1354 90° East 557 641 36,000  Level FlightAware Transoceanic
Sun 01:33:00 AM 55.1025 -34.8646 90° East 557 641 36,000  Level FlightAware Transoceanic
Sun 01:34:00 AM 55.1019 -34.5939 90° East 557 641 36,000  Level FlightAware Transoceanic
Sun 01:35:00 AM 55.1007 -34.3232 91° East 557 641 36,000  Level FlightAware Transoceanic
Sun 01:36:00 AM 55.0989 -34.0525 91° East 557 641 36,000  Level FlightAware Transoceanic
Sun 01:37:00 AM 55.0965 -33.7818 91° East 557 641 36,000  Level FlightAware Transoceanic
Sun 01:38:00 AM 55.0935 -33.5112 91° East 557 641 36,000  Level FlightAware Transoceanic
Sun 01:39:00 AM 55.0899 -33.2406 91° East 557 641 36,000  Level FlightAware Transoceanic
Sun 01:40:00 AM 55.0857 -32.9701 92° East 557 641 36,000  Level FlightAware Transoceanic
Sun 01:41:00 AM 55.0809 -32.6996 92° East 557 641 36,000  Level FlightAware Transoceanic
Sun 01:42:00 AM 55.0755 -32.4292 92° East 557 641 36,000  Level FlightAware Transoceanic
Sun 01:43:00 AM 55.0695 -32.1589 92° East 557 641 36,000  Level FlightAware Transoceanic
Sun 01:44:00 AM 55.0629 -31.8886 93° East 557 641 36,000  Level FlightAware Transoceanic
Sun 01:45:00 AM 55.0557 -31.6185 93° East 557 641 36,000  Level FlightAware Transoceanic
Sun 01:46:00 AM 55.0479 -31.3484 93° East 557 641 36,000  Level FlightAware Transoceanic
Sun 01:47:00 AM 55.0395 -31.0785 93° East 557 641 36,000  Level FlightAware Transoceanic
Sun 01:48:00 AM 55.0305 -30.8087 93° East 557 641 36,000  Level FlightAware Transoceanic
Sun 01:49:00 AM 55.0210 -30.5390 94° East 557 641 36,000  Level FlightAware Transoceanic
Sun 01:50:00 AM 55.0108 -30.2694 94° East 557 641 36,000  Level FlightAware Transoceanic
Sun 01:51:00 AM 55.0011 -30.0275 94° East  Level FlightAware Approximate
Sun 01:52:00 AM 54.9910 -29.7856 94° East  Level FlightAware Approximate
Sun 01:53:00 AM 54.9890 -29.8136 96° East  Level FlightAware Approximate
Sun 01:53:00 AM 55.0000 -30.0000 96° East 557 641 36,000  Level ETMS Enhanced Traffic Management System
Sun 01:54:00 AM 54.9743 -29.5725 96° East  Level FlightAware Approximate
Sun 01:55:00 AM 54.9592 -29.3317 96° East  Level FlightAware Approximate
Sun 01:56:00 AM 54.9436 -29.0910 96° East  Level FlightAware Approximate
Sun 01:57:00 AM 54.9275 -28.8505 97° East  Level FlightAware Approximate
Sun 01:58:00 AM 54.9110 -28.6102 97° East  Level FlightAware Approximate
Sun 01:59:00 AM 54.8586 -27.8570 97° East 557 641 36,000  Level FlightAware Transoceanic
Sun 02:00:00 AM 54.8383 -27.5902 98° East 557 641 36,000  Level FlightAware Transoceanic
Sun 02:01:00 AM 54.8174 -27.3237 98° East 557 641 36,000  Level FlightAware Transoceanic
Sun 02:02:00 AM 54.7959 -27.0575 98° East 557 641 36,000  Level FlightAware Transoceanic
Sun 02:03:00 AM 54.7738 -26.7915 98° East 557 641 36,000  Level FlightAware Transoceanic
Sun 02:04:00 AM 54.7512 -26.5259 99° East 557 641 36,000  Level FlightAware Transoceanic
Sun 02:05:00 AM 54.7280 -26.2606 99° East 557 641 36,000  Level FlightAware Transoceanic
Sun 02:06:00 AM 54.7042 -25.9956 99° East 557 641 36,000  Level FlightAware Transoceanic
Sun 02:07:00 AM 54.6798 -25.7309 99° East 557 641 36,000  Level FlightAware Transoceanic
Sun 02:08:00 AM 54.6548 -25.4665 99° East 557 641 36,000  Level FlightAware Transoceanic
Sun 02:09:00 AM 54.6293 -25.2024 100° East 557 641 36,000  Level FlightAware Transoceanic
Sun 02:10:00 AM 54.6032 -24.9387 100° East 557 641 36,000  Level FlightAware Transoceanic
Sun 02:11:00 AM 54.5765 -24.6753 100° East 557 641 36,000  Level FlightAware Transoceanic
Sun 02:12:00 AM 54.5493 -24.4123 100° East 557 641 36,000  Level FlightAware Transoceanic
Sun 02:13:00 AM 54.5214 -24.1496 100° East 557 641 36,000  Level FlightAware Transoceanic
Sun 02:14:00 AM 54.4930 -23.8873 101° East 557 641 36,000  Level FlightAware Transoceanic
Sun 02:15:00 AM 54.4641 -23.6253 101° East 557 641 36,000  Level FlightAware Transoceanic
Sun 02:16:00 AM 54.4346 -23.3637 101° East 557 641 36,000  Level FlightAware Transoceanic
Sun 02:17:00 AM 54.4045 -23.1025 101° East 557 641 36,000  Level FlightAware Transoceanic
Sun 02:18:00 AM 54.3738 -22.8417 102° East 557 641 36,000  Level FlightAware Transoceanic
Sun 02:19:00 AM 54.3426 -22.5813 102° East 557 641 36,000  Level FlightAware Transoceanic
Sun 02:20:00 AM 54.3109 -22.3213 102° East 557 641 36,000  Level FlightAware Transoceanic
Sun 02:21:00 AM 54.2785 -22.0617 102° East 557 641 36,000  Level FlightAware Transoceanic
Sun 02:22:00 AM 54.2457 -21.8025 102° East 557 641 36,000  Level FlightAware Transoceanic
Sun 02:23:00 AM 54.2122 -21.5437 103° East 557 641 36,000  Level FlightAware Transoceanic
Sun 02:24:00 AM 54.1782 -21.2853 103° East 557 641 36,000  Level FlightAware Transoceanic
Sun 02:25:00 AM 54.1437 -21.0274 103° East 557 641 36,000  Level FlightAware Transoceanic
Sun 02:26:00 AM 54.1086 -20.7699 103° East 557 641 36,000  Level FlightAware Transoceanic
Sun 02:27:00 AM 54.0729 -20.5128 103° East 557 641 36,000  Level FlightAware Transoceanic
Sun 02:28:00 AM 54.0367 -20.2562 104° East 557 641 36,000  Level FlightAware Transoceanic
Sun 02:29:00 AM 54.0038 -20.0262 104° East  Level FlightAware Approximate
Sun 02:30:00 AM 53.9704 -19.7965 104° East  Level FlightAware Approximate
Sun 02:31:00 AM 53.9874 -19.8185 97° East  Level FlightAware Approximate
Sun 02:32:00 AM 53.9708 -19.5837 97° East  Level FlightAware Approximate
Sun 02:33:00 AM 53.9537 -19.3491 97° East  Level FlightAware Approximate
Sun 02:34:00 AM 53.9361 -19.1146 97° East  Level FlightAware Approximate
Sun 02:35:00 AM 53.9181 -18.8804 97° East  Level FlightAware Approximate
Sun 02:36:00 AM 53.8996 -18.6464 98° East  Level FlightAware Approximate
Sun 02:37:00 AM 53.8806 -18.4125 98° East  Level FlightAware Approximate
Sun 02:38:00 AM 53.8613 -18.1789 98° East  Level FlightAware Approximate
Sun 02:39:00 AM 53.8414 -17.9456 98° East  Level FlightAware Approximate
Sun 02:40:00 AM 53.8211 -17.7124 98° East  Level FlightAware Approximate
Sun 02:41:00 AM 53.8004 -17.4795 98° East  Level FlightAware Approximate
Sun 02:42:00 AM 53.7792 -17.2468 99° East  Level FlightAware Approximate
Sun 02:43:00 AM 53.7575 -17.0143 99° East  Level FlightAware Approximate
Sun 02:44:00 AM 53.7354 -16.7821 99° East  Level FlightAware Approximate
Sun 02:45:00 AM 53.7129 -16.5501 99° East  Level FlightAware Approximate
Sun 02:46:00 AM 53.6899 -16.3184 99° East  Level FlightAware Approximate
Sun 02:47:00 AM 53.6664 -16.0869 100° East  Level FlightAware Approximate
Sun 02:48:00 AM 53.6425 -15.8557 100° East  Level FlightAware Approximate
Sun 02:49:00 AM 53.6182 -15.6248 100° East  Level FlightAware Approximate
Sun 02:50:00 AM 53.5934 -15.3941 100° East  Level FlightAware Approximate
Sun 02:51:00 AM 53.5682 -15.1637 100° East  Level FlightAware Approximate
Sun 02:52:00 AM 53.5425 -14.9336 101° East  Level FlightAware Approximate
Sun 02:53:00 AM 53.5162 -14.7038 101° East  Level FlightAware Approximate
Sun 02:54:00 AM 53.4895 -14.4743 101° East  Level FlightAware Approximate
Sun 02:55:00 AM 53.4623 -14.2451 101° East  Level FlightAware Approximate
Sun 02:56:00 AM 53.4347 -14.0162 101° East  Level FlightAware Approximate
Sun 02:57:00 AM 53.4067 -13.7875 102° East  Level FlightAware Approximate
Sun 02:58:00 AM 53.3783 -13.5592 102° East  Level FlightAware Approximate
Sun 02:59:00 AM 53.3500 -13.3310 102° East  Level FlightAware Approximate
Sun 03:00:00 AM 53.3212 -13.1031 102° East  Level FlightAware Approximate
Sun 03:01:00 AM 53.2920 -12.8755 102° East  Level FlightAware Approximate
Sun 03:02:00 AM 53.2624 -12.6482 102° East  Level FlightAware Approximate
Sun 03:02:04 AM 52.8170 -12.4390 102° East 490 564 36,000  Level FlightAware ADS-B
Sun 03:02:49 AM 52.8070 -12.2720 96° East 489 563 36,000  Level FlightAware ADS-B
Sun 03:03:29 AM 52.7980 -12.1240 96° East 488 562 36,000  Level FlightAware ADS-B
Sun 03:04:09 AM 52.7890 -11.9760 96° East 486 559 36,000  Level FlightAware ADS-B
Sun 03:04:54 AM 52.7770 -11.8100 97° East 485 558 36,000  Level FlightAware ADS-B
Sun 03:05:39 AM 52.7650 -11.6490 97° East 485 558 36,000  Level FlightAware ADS-B
Sun 03:06:19 AM 52.7520 -11.4950 98° East 485 558 36,000  Level FlightAware ADS-B
Sun 03:06:59 AM 52.7400 -11.3520 98° East 484 557 36,000  Level FlightAware ADS-B
Sun 03:07:44 AM 52.7260 -11.1920 98° East 483 556 36,000  Level FlightAware ADS-B
Sun 03:08:24 AM 52.7130 -11.0460 98° East 482 555 36,000  Level FlightAware ADS-B
Sun 03:09:04 AM 52.6990 -10.8970 99° East 481 554 36,000  Level FlightAware ADS-B
Sun 03:10:02 AM 52.6790 -10.6900 99° East 481 554 36,000  Level FlightAware ADS-B
Sun 03:10:45 AM 52.6630 -10.5310 99° East 481 554 36,000  Level FlightAware ADS-B
Sun 03:11:30 AM 52.6470 -10.3680 99° East 481 554 36,000  Level FlightAware ADS-B
Sun 03:12:16 AM 52.6310 -10.2060 99° East 481 554 36,000  Level FlightAware ADS-B
Sun 03:12:55 AM 52.6160 -10.0620 100° East 479 551 36,000  Level FlightAware ADS-B
Sun 03:13:41 AM 52.5990 -9.9010 100° East 478 550 36,000  Level FlightAware ADS-B
Sun 03:14:20 AM 52.5840 -9.7580 100° East 478 550 36,000  Level FlightAware ADS-B
Sun 03:15:06 AM 52.5670 -9.5930 100° East 476 548 36,000  Level FlightAware ADS-B
Sun 03:15:46 AM 52.5510 -9.4510 100° East 477 549 36,000  Level FlightAware ADS-B
Sun 03:16:28 AM 52.5360 -9.3080 100° East 477 549 36,000  Level FlightAware ADS-B
Sun 03:17:12 AM 52.5190 -9.1450 100° East 477 549 36,000  Level FlightAware ADS-B
Sun 03:17:51 AM 52.5022 -8.9993 100° East 1 1 36,000  Level FlightAware UK
Sun 03:17:51 AM 52.5030 -9.0060 100° East 477 549 36,000  Level FlightAware ADS-B
Sun 03:18:09 AM 52.4953 -8.9350 100° East 464 534 36,000  Level FlightAware UK
Sun 03:18:27 AM 52.4884 -8.8713 100° East 466 536 36,000  Level FlightAware UK
Sun 03:18:37 AM 52.4850 -8.8420 100° East 477 549 36,000  Level FlightAware ADS-B
Sun 03:18:57 AM 52.4761 -8.7644 100° East 466 536 36,000  Level FlightAware UK
Sun 03:19:15 AM 52.4688 -8.7002 101° East 466 536 36,000  Level FlightAware UK
Sun 03:19:16 AM 52.4690 -8.7030 101° East 476 548 36,000  Level FlightAware ADS-B
Sun 03:19:33 AM 52.4614 -8.6362 101° East 464 534 36,000  Level FlightAware UK
Sun 03:19:51 AM 52.4542 -8.5721 100° East 462 532 36,000  Level FlightAware UK
Sun 03:19:57 AM 52.4530 -8.5580 100° East 477 549 36,000  Level FlightAware ADS-B
Sun 03:20:15 AM 52.4444 -8.4867 100° East 464 534 36,000  Level FlightAware UK
Sun 03:20:33 AM 52.4369 -8.4227 101° East 464 534 36,000  Level FlightAware UK
Sun 03:20:51 AM 52.4292 -8.3587 101° East 462 532 36,000  Level FlightAware UK
Sun 03:21:09 AM 52.4215 -8.2939 101° East 464 534 36,000  Level FlightAware UK
Sun 03:21:11 AM 52.4270 -8.3170 101° East 478 550 36,000  Level FlightAware ADS-B
Sun 03:21:27 AM 52.4138 -8.2297 101° East 466 536 36,000  Level FlightAware UK
Sun 03:21:45 AM 52.4062 -8.1655 101° East 466 536 36,000  Level FlightAware UK
Sun 03:21:49 AM 52.4050 -8.1560 101° East 478 550 36,000  Level FlightAware ADS-B
Sun 03:22:09 AM 52.3961 -8.0801 101° East 466 536 36,000  Level FlightAware UK
Sun 03:22:27 AM 52.3884 -8.0160 101° East 468 539 36,000  Level FlightAware UK
Sun 03:22:33 AM 52.3860 -7.9990 101° East 478 550 36,000  Level FlightAware ADS-B
Sun 03:22:51 AM 52.3782 -7.9306 101° East 468 539 36,000 -167 Level FlightAware UK
Sun 03:23:09 AM 52.3705 -7.8666 101° East 470 541 35,900  Descending FlightAware UK
Sun 03:23:12 AM 52.3700 -7.8610 101° East 481 554 36,000 -333 Climbing FlightAware ADS-B
Sun 03:23:27 AM 52.3628 -7.8026 101° East 472 543 35,800 -545 Descending FlightAware UK
Sun 03:23:45 AM 52.3551 -7.7385 101° East 470 541 35,700 -194 Descending FlightAware UK
Sun 03:23:58 AM 52.3500 -7.7000 101° East 480 552 35,700 -200 Level FlightAware ADS-B
Sun 03:24:15 AM 52.3424 -7.6317 101° East 472 543 35,600 -514 Descending FlightAware UK
Sun 03:24:33 AM 52.3347 -7.5676 101° East 472 543 35,400 -261 Descending FlightAware UK
Sun 03:24:38 AM 52.3330 -7.5550 101° East 479 551 35,500 -500 Climbing FlightAware ADS-B
Sun 03:24:57 AM 52.3246 -7.4822 101° East 472 543 35,200 -973 Descending FlightAware UK
Sun 03:25:15 AM 52.3168 -7.4182 101° East 468 539 34,900 -667 Descending FlightAware UK
Sun 03:25:15 AM 52.3170 -7.4270 101° East 482 555 35,000 -667 Climbing FlightAware ADS-B
Sun 03:25:33 AM 52.3088 -7.3541 101° East 470 541 34,700 -833 Descending FlightAware UK
Sun 03:25:51 AM 52.3007 -7.2899 102° East 470 541 34,500 -643 Descending FlightAware UK
Sun 03:26:01 AM 52.2970 -7.2620 102° East 483 556 34,400 -800 Descending FlightAware ADS-B
Sun 03:26:21 AM 52.2872 -7.1826 102° East 476 548 34,100 -923 Descending FlightAware UK
Sun 03:26:40 AM 52.2788 -7.1177 102° East 472 543 33,800 -783 Descending FlightAware UK
Sun 03:26:44 AM 52.2760 -7.1030 102° East 479 551 33,800 -750 Level FlightAware ADS-B
Sun 03:27:04 AM 52.2676 -7.0325 102° East 470 541 33,500 -789 Descending FlightAware UK
Sun 03:27:22 AM 52.2595 -6.9688 102° East 470 541 33,300 -500 Descending FlightAware UK
Sun 03:27:28 AM 52.2560 -6.9580 102° East 480 552 33,300 -750 Level FlightAware ADS-B
Sun 03:27:46 AM 52.2452 -6.8858 102° East 480 552 33,000 -500 Descending FlightAware UK
Sun 03:28:04 AM 52.2351 -6.8231 105° East 470 541 33,000  Level FlightAware UK
Sun 03:28:09 AM 52.2330 -6.8150 105° East 473 544 33,000  Level FlightAware ADS-B
Sun 03:28:28 AM 52.2216 -6.7407 105° East 470 541 33,000  Level FlightAware UK
Sun 03:28:46 AM 52.2116 -6.6791 105° East 464 534 33,000  Level FlightAware UK
Sun 03:28:53 AM 52.2080 -6.6570 105° East 468 539 33,000  Level FlightAware ADS-B
Sun 03:29:10 AM 52.1983 -6.5973 105° East 462 532 33,000  Level FlightAware UK
Sun 03:29:28 AM 52.1883 -6.5361 105° East 462 532 33,000  Level FlightAware UK
Sun 03:29:33 AM 52.1860 -6.5250 105° East 469 540 33,000  Level FlightAware ADS-B
Sun 03:29:52 AM 52.1751 -6.4544 105° East 466 536 33,000  Level FlightAware UK
Sun 03:30:10 AM 52.1650 -6.3930 105° East 466 536 33,000  Level FlightAware UK
Sun 03:30:13 AM 52.1630 -6.3840 105° East 470 541 33,000  Level FlightAware ADS-B
Sun 03:30:28 AM 52.1549 -6.3315 105° East 466 536 33,000  Level FlightAware UK
Sun 03:30:46 AM 52.1447 -6.2699 105° East 472 543 33,000  Level FlightAware UK
Sun 03:30:55 AM 52.1390 -6.2410 105° East 472 543 33,000  Level FlightAware ADS-B
Sun 03:31:10 AM 52.1309 -6.1878 105° East 474 545 33,000  Level FlightAware UK
Sun 03:31:28 AM 52.1204 -6.1262 105° East 474 545 33,000  Level FlightAware UK
Sun 03:31:40 AM 52.1140 -6.0870 105° East 470 541 33,000  Level FlightAware ADS-B
Sun 03:31:58 AM 52.1031 -6.0230 105° East 474 545 33,000  Level FlightAware UK
Sun 03:32:16 AM 52.0927 -5.9616 105° East 472 543 33,000  Level FlightAware UK
Sun 03:32:20 AM 52.0910 -5.9510 105° East 468 539 33,000  Level FlightAware ADS-B
Sun 03:32:40 AM 52.0792 -5.8801 105° East 468 539 33,000  Level FlightAware UK
Sun 03:32:58 AM 52.0690 -5.8193 105° East 466 536 33,000  Level FlightAware UK
Sun 03:33:04 AM 52.0660 -5.7990 105° East 466 536 33,000  Level FlightAware ADS-B
Sun 03:33:22 AM 52.0555 -5.7383 105° East 462 532 33,000  Level FlightAware UK
Sun 03:33:40 AM 52.0454 -5.6777 105° East 464 534 33,000  Level FlightAware UK
Sun 03:33:45 AM 52.0430 -5.6640 105° East 465 535 33,000  Level FlightAware ADS-B
Sun 03:34:04 AM 52.0316 -5.5970 105° East 466 536 33,000  Level FlightAware UK
Sun 03:34:22 AM 52.0214 -5.5365 105° East 466 536 33,000  Level FlightAware UK
Sun 03:34:28 AM 52.0180 -5.5200 105° East 464 534 33,000  Level FlightAware ADS-B
Sun 03:34:46 AM 52.0077 -5.4560 105° East 470 541 33,000  Level FlightAware UK
Sun 03:35:04 AM 51.9974 -5.3958 105° East 468 539 33,000  Level FlightAware UK
Sun 03:35:06 AM 51.9960 -5.3920 105° East 464 534 33,000  Level FlightAware ADS-B
Sun 03:35:22 AM 51.9873 -5.3356 105° East 470 541 33,000  Level FlightAware UK
Sun 03:35:40 AM 51.9768 -5.2753 106° East 474 545 33,000  Level FlightAware UK
Sun 03:35:51 AM 51.9710 -5.2440 106° East 471 542 33,000  Level FlightAware ADS-B
Sun 03:36:10 AM 51.9587 -5.1736 106° East 476 548 33,000 -162 Level FlightAware UK
Sun 03:36:28 AM 51.9476 -5.1123 106° East 474 545 32,900  Descending FlightAware UK
Sun 03:36:32 AM 51.9450 -5.1020 106° East 465 535 33,000 250 Climbing FlightAware ADS-B
Sun 03:36:52 AM 51.9332 -5.0321 106° East 466 536 33,000  Level FlightAware UK
Sun 03:37:10 AM 51.9227 -4.9728 106° East 464 534 33,000  Level FlightAware UK
Sun 03:37:15 AM 51.9210 -4.9630 106° East 458 527 33,000  Level FlightAware ADS-B
Sun 03:37:34 AM 51.9086 -4.8941 106° East 468 539 33,000  Level FlightAware UK
Sun 03:37:52 AM 51.8979 -4.8335 106° East 474 545 33,000  Level FlightAware UK
Sun 03:37:56 AM 51.8960 -4.8260 106° East 468 539 33,000  Level FlightAware ADS-B
Sun 03:38:16 AM 51.8834 -4.7533 106° East 472 543 33,000 -158 Level FlightAware UK
Sun 03:38:34 AM 51.8726 -4.6938 106° East 466 536 32,900  Descending FlightAware UK
Sun 03:38:41 AM 51.8690 -4.6750 106° East 448 516 33,000 250 Climbing FlightAware ADS-B
Sun 03:38:58 AM 51.8591 -4.6173 106° East 462 532 33,000  Level FlightAware UK
Sun 03:39:16 AM 51.8491 -4.5595 106° East 462 532 33,000  Level FlightAware UK
Sun 03:39:21 AM 51.8470 -4.5500 106° East 448 516 33,000  Level FlightAware ADS-B
Sun 03:39:40 AM 51.8359 -4.4822 106° East 466 536 33,000  Level FlightAware UK
Sun 03:39:58 AM 51.8259 -4.4241 105° East 464 534 33,000  Level FlightAware UK
Sun 03:40:05 AM 51.8220 -4.4040 105° East 452 520 33,000  Level FlightAware ADS-B
Sun 03:40:22 AM 51.8123 -4.3461 105° East 470 541 33,000  Level FlightAware UK
Sun 03:40:40 AM 51.8020 -4.2875 106° East 472 543 33,000  Level FlightAware UK
Sun 03:40:43 AM 51.8000 -4.2810 106° East 455 524 33,000  Level FlightAware ADS-B
Sun 03:40:58 AM 51.7915 -4.2287 106° East 472 543 33,000  Level FlightAware UK
Sun 03:41:16 AM 51.7807 -4.1693 106° East 474 545 33,000  Level FlightAware UK
Sun 03:41:22 AM 51.7770 -4.1530 106° East 457 526 33,000  Level FlightAware ADS-B
Sun 03:41:40 AM 51.7660 -4.0915 106° East 474 545 33,000  Level FlightAware UK
Sun 03:41:58 AM 51.7548 -4.0325 107° East 470 541 33,000  Level FlightAware UK
Sun 03:42:08 AM 51.7490 -4.0020 107° East 444 511 33,000  Level FlightAware ADS-B
Sun 03:42:28 AM 51.7366 -3.9385 107° East 462 532 33,000  Level FlightAware UK
Sun 03:42:46 AM 51.7258 -3.8822 107° East 462 532 33,000  Level FlightAware UK
Sun 03:42:49 AM 51.7240 -3.8770 107° East 438 504 33,000  Level FlightAware ADS-B
Sun 03:43:07 AM 51.7135 -3.8206 107° East 438 504 33,000  Level FlightAware ADS-B
Sun 03:43:22 AM 51.7043 -3.7700 107° East 460 529 33,000  Level FlightAware UK
Sun 03:43:40 AM 51.6933 -3.7141 107° East 460 529 33,000  Level FlightAware UK
Sun 03:43:58 AM 51.6825 -3.6581 107° East 460 529 33,000  Level FlightAware UK
Sun 03:44:15 AM 51.6722 -3.6089 107° East 438 504 33,000  Level FlightAware ADS-B
Sun 03:44:34 AM 51.6607 -3.5462 107° East 468 539 33,000  Level FlightAware UK
Sun 03:44:52 AM 51.6499 -3.4902 107° East 468 539 33,000  Level FlightAware UK
Sun 03:44:58 AM 51.6470 -3.4750 107° East 436 502 33,000  Level FlightAware ADS-B
Sun 03:45:22 AM 51.6323 -3.3981 107° East 435 501 33,000  Level FlightAware ADS-B
Sun 03:45:40 AM 51.6214 -3.3416 107° East 464 534 33,000  Level FlightAware UK
Sun 03:45:58 AM 51.6111 -3.2861 107° East 462 532 33,000  Level FlightAware UK
Sun 03:46:05 AM 51.6090 -3.2710 107° East 433 498 33,000  Level FlightAware ADS-B
Sun 03:46:28 AM 51.5979 -3.1962 103° East 433 498 33,000 -293 Level FlightAware ADS-B
Sun 03:46:46 AM 51.5901 -3.1353 103° East 460 529 32,800 -1,000 Descending FlightAware UK
Sun 03:46:58 AM 51.5855 -3.0990 103° East 429 494 32,500 -1,600 Descending FlightAware ADS-B
Sun 03:47:16 AM 51.5782 -3.0418 103° East 444 511 32,000 -1,091 Descending FlightAware UK
Sun 03:47:31 AM 51.5729 -3.0019 103° East 411 473 31,900 -1,000 Descending FlightAware ADS-B
Sun 03:47:46 AM 51.5669 -2.9537 103° East 432 497 31,500 -1,548 Descending FlightAware UK
Sun 03:48:02 AM 51.5610 -2.9089 103° East 395 455 31,100 -2,000 Descending FlightAware ADS-B
Sun 03:48:22 AM 51.5535 -2.8506 103° East 420 483 30,300 -2,129 Descending FlightAware UK
Sun 03:48:33 AM 51.5498 -2.8234 103° East 390 449 30,000 -2,129 Descending FlightAware ADS-B
Sun 03:48:53 AM 51.5426 -2.7651 103° East 414 476 29,200 -2,129 Descending FlightAware UK
Sun 03:49:04 AM 51.5383 -2.7359 103° East 387 445 28,900 -2,000 Descending FlightAware ADS-B
Sun 03:49:23 AM 51.5314 -2.6808 103° East 408 470 28,200 -2,129 Descending FlightAware UK
Sun 03:49:35 AM 51.5269 -2.6493 103° East 383 441 27,800 -2,200 Descending FlightAware ADS-B
Sun 03:49:53 AM 51.5201 -2.5969 103° East 402 463 27,100 -2,182 Descending FlightAware UK
Sun 03:50:08 AM 51.5146 -2.5578 103° East 381 438 26,600 -2,400 Descending FlightAware ADS-B
Sun 03:50:23 AM 51.5089 -2.5148 103° East 396 456 25,900 -2,400 Descending FlightAware UK
Sun 03:50:38 AM 51.5030 -2.4727 103° East 379 436 25,400 -2,200 Descending FlightAware ADS-B
Sun 03:50:53 AM 51.4973 -2.4318 103° East 388 447 24,800 -2,063 Descending FlightAware UK
Sun 03:51:10 AM 51.4906 -2.3851 103° East 377 434 24,300 -2,000 Descending FlightAware ADS-B
Sun 03:51:35 AM 51.4811 -2.3175 103° East 382 440 23,400 -1,875 Descending FlightAware UK
Sun 03:51:42 AM 51.4786 -2.3010 103° East 372 428 23,300 -1,750 Descending FlightAware ADS-B
Sun 03:51:59 AM 51.4721 -2.2534 103° East 378 435 22,700 -1,800 Descending FlightAware UK
Sun 03:52:12 AM 51.4672 -2.2212 103° East 367 422 22,400 -1,800 Descending FlightAware ADS-B
Sun 03:52:29 AM 51.4609 -2.1744 103° East 372 428 21,800 -2,000 Descending FlightAware UK
Sun 03:52:42 AM 51.4559 -2.1399 103° East 361 415 21,400 -2,000 Descending FlightAware ADS-B
Sun 03:52:59 AM 51.4497 -2.0963 103° East 366 421 20,800 -1,818 Descending FlightAware UK
Sun 03:53:15 AM 51.4439 -2.0570 103° East 357 411 20,400 -1,833 Descending FlightAware ADS-B
Sun 03:53:35 AM 51.4363 -2.0035 103° East 362 417 19,700 -2,000 Descending FlightAware UK
Sun 03:53:45 AM 51.4325 -1.9803 103° East 353 406 19,400 -2,000 Descending FlightAware ADS-B
Sun 03:54:05 AM 51.4250 -1.9271 103° East 354 407 18,700 -2,000 Descending FlightAware UK
Sun 03:54:15 AM 51.4212 -1.9017 103° East 350 403 18,400 -1,800 Descending FlightAware ADS-B
Sun 03:54:35 AM 51.4139 -1.8516 103° East 352 405 17,800 -1,714 Descending FlightAware UK
Sun 03:54:50 AM 51.4085 -1.8167 103° East 345 397 17,400 -1,600 Descending FlightAware ADS-B
Sun 03:55:05 AM 51.4027 -1.7764 103° East 348 400 17,000 -1,548 Descending FlightAware UK
Sun 03:55:21 AM 51.3973 -1.7404 103° East 339 390 16,600 -1,833 Descending FlightAware ADS-B
Sun 03:55:41 AM 51.3901 -1.6892 103° East 340 391 15,900 -1,800 Descending FlightAware UK
Sun 03:55:51 AM 51.3866 -1.6679 103° East 332 382 15,700 -1,800 Descending FlightAware ADS-B
Sun 03:56:11 AM 51.3794 -1.6176 103° East 336 387 15,000 -2,000 Descending FlightAware UK
Sun 03:56:27 AM 51.3740 -1.5828 103° East 326 375 14,500 -1,667 Descending FlightAware ADS-B
Sun 03:56:47 AM 51.3671 -1.5327 103° East 320 368 14,000 -938 Descending FlightAware UK
Sun 03:56:59 AM 51.3637 -1.5091 103° East 311 358 14,000  Level FlightAware ADS-B
Sun 03:57:17 AM 51.3581 -1.4674 103° East 292 336 14,000  Level FlightAware UK
Sun 03:57:30 AM 51.3545 -1.4437 103° East 279 321 14,000  Level FlightAware ADS-B
Sun 03:57:47 AM 51.3495 -1.4076 103° East 270 311 14,000  Level FlightAware UK
Sun 03:58:00 AM 51.3462 -1.3852 103° East 266 306 14,000  Level FlightAware ADS-B
Sun 03:58:18 AM 51.3412 -1.3497 103° East 268 308 14,000  Level FlightAware UK
Sun 03:58:30 AM 51.3379 -1.3278 103° East 266 306 14,000  Level FlightAware ADS-B
Sun 03:58:48 AM 51.3330 -1.2923 103° East 270 311 14,000  Level FlightAware UK
Sun 03:59:00 AM 51.3295 -1.2705 103° East 266 306 14,000 -500 Level FlightAware ADS-B
Sun 03:59:24 AM 51.3228 -1.2234 103° East 270 311 13,700 -774 Descending FlightAware UK
Sun 03:59:31 AM 51.3205 -1.2109 103° East 266 306 13,600 -571 Descending FlightAware ADS-B
Sun 03:59:45 AM 51.3164 -1.1842 104° East 264 304 13,500 -545 Descending FlightAware ADS-B
Sun 03:59:53 AM 51.3148 -1.1689 99° East 262 302 13,400 -900 Descending FlightAware ADS-B
Sun 04:00:05 AM 51.3137 -1.1458 94° East 260 299 13,200 -600 Descending FlightAware ADS-B
Sun 04:00:33 AM 51.3128 -1.0922 92° East 258 297 13,000 -490 Descending FlightAware ADS-B
Sun 04:00:54 AM 51.3121 -1.0506 92° East 266 306 12,800 -400 Descending FlightAware UK
Sun 04:01:03 AM 51.3118 -1.0348 92° East 259 298 12,800 -500 Level FlightAware ADS-B
Sun 04:01:18 AM 51.3113 -1.0052 92° East 266 306 12,600 -387 Descending FlightAware UK
Sun 04:01:34 AM 51.3110 -0.9759 92° East 255 293 12,600 -500 Level FlightAware ADS-B
Sun 04:01:54 AM 51.3102 -0.9366 92° East 262 302 12,300 -600 Descending FlightAware UK
Sun 04:02:04 AM 51.3100 -0.9191 92° East 258 297 12,300 -400 Level FlightAware ADS-B
Sun 04:02:24 AM 51.3097 -0.8798 92° East 264 304 12,100 -400 Descending FlightAware UK
Sun 04:02:34 AM 51.3097 -0.8602 92° East 256 295 12,100 -200 Level FlightAware ADS-B
Sun 04:02:54 AM 51.3097 -0.8229 92° East 260 299 12,000 -194 Descending FlightAware UK
Sun 04:03:05 AM 51.3098 -0.8038 92° East 255 293 12,000  Level FlightAware ADS-B
Sun 04:03:24 AM 51.3098 -0.7660 92° East 262 302 12,000  Level FlightAware UK
Sun 04:03:36 AM 51.3097 -0.7452 92° East 256 295 12,000  Level FlightAware ADS-B
Sun 04:03:54 AM 51.3096 -0.7095 92° East 262 302 12,000  Level FlightAware UK
Sun 04:04:07 AM 51.3093 -0.6869 92° East 254 292 12,000  Level FlightAware ADS-B
Sun 04:04:35 AM 51.3086 -0.6343 91° East 255 293 12,000 -255 Level FlightAware ADS-B
Sun 04:04:54 AM 51.3080 -0.5967 91° East 264 304 11,800 -600 Descending FlightAware UK
Sun 04:05:05 AM 51.3074 -0.5775 91° East 256 295 11,700 -585 Descending FlightAware ADS-B
Sun 04:05:35 AM 51.3058 -0.5214 93° East 251 289 11,400 -517 Descending FlightAware ADS-B
Sun 04:06:03 AM 51.3048 -0.4679 92° East 250 288 11,200 -471 Descending FlightAware ADS-B
Sun 04:06:26 AM 51.3045 -0.4272 91° East 250 288 11,000 -444 Descending FlightAware ADS-B
Sun 04:06:30 AM 51.3040 -0.4198 96° East 252 290 11,000  Level FlightAware ADS-B
Sun 04:06:37 AM 51.3019 -0.4072 105° East 253 291 11,000  Level FlightAware ADS-B
Sun 04:06:49 AM 51.2970 -0.3859 110° East 256 295 11,000 -286 Level FlightAware ADS-B
Sun 04:07:19 AM 51.2840 -0.3326 111° Southeast 256 295 10,800 -500 Descending FlightAware ADS-B
Sun 04:07:25 AM 51.2814 -0.3221 112° Southeast 255 293 10,700 -706 Descending FlightAware ADS-B
Sun 04:07:36 AM 51.2744 -0.3046 123° Southeast 258 297 10,600 -429 Descending FlightAware ADS-B
Sun 04:07:39 AM 51.2710 -0.3010 146° Southeast 260 299 10,600  Level FlightAware ADS-B
Sun 04:07:42 AM 51.2677 -0.2967 141° Southeast 261 300 10,600 -600 Level FlightAware ADS-B
Sun 04:07:49 AM 51.2599 -0.2924 161° South 264 304 10,500 -545 Descending FlightAware ADS-B
Sun 04:07:53 AM 51.2556 -0.2911 169° South 266 306 10,500  Level FlightAware ADS-B
Sun 04:07:57 AM 51.2499 -0.2911 180° South 266 306 10,500 -667 Level FlightAware ADS-B
Sun 04:08:02 AM 51.2441 -0.2928 191° South 268 308 10,400 -750 Descending FlightAware ADS-B
Sun 04:08:05 AM 51.2406 -0.2948 199° South 268 308 10,400  Level FlightAware ADS-B
Sun 04:08:10 AM 51.2356 -0.2995 211° Southwest 267 307 10,400 -545 Level FlightAware ADS-B
Sun 04:08:16 AM 51.2297 -0.3072 219° Southwest 267 307 10,300 -1,200 Descending FlightAware ADS-B
Sun 04:08:20 AM 51.2265 -0.3135 231° Southwest 265 305 10,200 -857 Descending FlightAware ADS-B
Sun 04:08:23 AM 51.2247 -0.3205 248° West 263 303 10,200 -600 Level FlightAware ADS-B
Sun 04:08:30 AM 51.2225 -0.3317 253° West 260 299 10,100 -500 Descending FlightAware ADS-B
Sun 04:08:35 AM 51.2223 -0.3412 268° West 257 296 10,100 -750 Level FlightAware ADS-B
Sun 04:08:38 AM 51.2227 -0.3468 276° West 254 292 10,000 -857 Descending FlightAware ADS-B
Sun 04:08:42 AM 51.2240 -0.3542 286° West 253 291 10,000  Level FlightAware ADS-B
Sun 04:08:45 AM 51.2257 -0.3611 292° West 251 289 10,000 -857 Level FlightAware ADS-B
Sun 04:08:49 AM 51.2280 -0.3658 308° West 249 287 9,900 -857 Descending FlightAware ADS-B
Sun 04:08:52 AM 51.2304 -0.3700 312° West 248 285 9,900 -1,000 Level FlightAware ADS-B
Sun 04:08:55 AM 51.2331 -0.3738 319° Northwest 247 284 9,800 -1,000 Descending FlightAware ADS-B
Sun 04:08:58 AM 51.2361 -0.3779 319° Northwest 246 283 9,800  Level FlightAware ADS-B
Sun 04:09:02 AM 51.2402 -0.3802 340° North 246 283 9,800 -857 Level FlightAware ADS-B
Sun 04:09:05 AM 51.2437 -0.3824 339° North 245 282 9,700 -750 Descending FlightAware ADS-B
Sun 04:09:10 AM 51.2493 -0.3835 353° North 245 282 9,700 -750 Level FlightAware ADS-B
Sun 04:09:13 AM 51.2527 -0.3836 358° North 245 282 9,600 -857 Descending FlightAware ADS-B
Sun 04:09:17 AM 51.2567 -0.3830 North 245 282 9,600 -667 Level FlightAware ADS-B
Sun 04:09:22 AM 51.2628 -0.3810 11° North 244 281 9,500 -571 Descending FlightAware ADS-B
Sun 04:09:38 AM 51.2795 -0.3726 17° North 245 282 9,400 -581 Descending FlightAware ADS-B
Sun 04:09:53 AM 51.2965 -0.3648 16° North 243 280 9,200 -774 Descending FlightAware ADS-B
Sun 04:10:09 AM 51.3128 -0.3575 16° North 242 278 9,000 -923 Descending FlightAware ADS-B
Sun 04:10:19 AM 51.3239 -0.3521 17° North 240 276 8,800 -923 Descending FlightAware ADS-B
Sun 04:10:22 AM 51.3271 -0.3487 34° Northeast 240 276 8,800  Level FlightAware ADS-B
Sun 04:10:25 AM 51.3299 -0.3453 37° Northeast 240 276 8,800 -857 Level FlightAware ADS-B
Sun 04:10:29 AM 51.3324 -0.3416 43° Northeast 240 276 8,700 -750 Descending FlightAware ADS-B
Sun 04:10:33 AM 51.3356 -0.3361 47° Northeast 239 275 8,700 -750 Level FlightAware ADS-B
Sun 04:10:37 AM 51.3377 -0.3283 67° East 240 276 8,600 -1,091 Descending FlightAware ADS-B
Sun 04:10:44 AM 51.3402 -0.3181 69° East 242 278 8,500 -750 Descending FlightAware ADS-B
Sun 04:11:01 AM 51.3453 -0.2887 74° East 242 278 8,300 -938 Descending FlightAware ADS-B
Sun 04:11:16 AM 51.3506 -0.2615 73° East 242 278 8,000 -968 Descending FlightAware ADS-B
Sun 04:11:32 AM 51.3558 -0.2360 72° East 240 276 7,800 -750 Descending FlightAware ADS-B
Sun 04:11:48 AM 51.3611 -0.2093 72° East 232 267 7,600 -563 Descending FlightAware ADS-B
Sun 04:12:04 AM 51.3660 -0.1837 73° East 222 255 7,500 -563 Descending FlightAware ADS-B
Sun 04:12:20 AM 51.3707 -0.1589 73° East 215 247 7,300 -581 Descending FlightAware ADS-B
Sun 04:12:35 AM 51.3747 -0.1353 75° East 204 235 7,200 -600 Descending FlightAware ADS-B
Sun 04:12:50 AM 51.3784 -0.1138 75° East 198 228 7,000 -800 Descending FlightAware ADS-B
Sun 04:13:05 AM 51.3819 -0.0926 75° East 197 227 6,800 -581 Descending FlightAware ADS-B
Sun 04:13:21 AM 51.3855 -0.0715 75° East 197 227 6,700 -581 Descending FlightAware ADS-B
Sun 04:13:36 AM 51.3891 -0.0503 75° East 199 229 6,500 -800 Descending FlightAware ADS-B
Sun 04:13:51 AM 51.3927 -0.0289 75° East 199 229 6,300 -581 Descending FlightAware ADS-B
Sun 04:14:07 AM 51.3965 -0.0063 75° East 197 227 6,200 -522 Descending FlightAware ADS-B
Sun 04:14:14 AM 51.3986 0.0047 73° East 194 223 6,100 -923 Descending FlightAware ADS-B
Sun 04:14:20 AM 51.4010 0.0110 58° Northeast 193 222 6,000 -375 Descending FlightAware ADS-B
Sun 04:14:30 AM 51.4059 0.0228 56° Northeast 191 220 6,000 -333 Level FlightAware ADS-B
Sun 04:14:38 AM 51.4102 0.0320 53° Northeast 191 220 5,900 -500 Descending FlightAware ADS-B
Sun 04:14:42 AM 51.4123 0.0363 52° Northeast 189 217 5,900 -429 Level FlightAware ADS-B
Sun 04:14:52 AM 51.4200 0.0437 31° Northeast 184 212 5,800 -462 Descending FlightAware ADS-B
Sun 04:14:55 AM 51.4227 0.0448 14° North 183 211 5,800  Level FlightAware ADS-B
Sun 04:15:00 AM 51.4269 0.0452 North 182 209 5,800  Level FlightAware ADS-B
Sun 04:15:05 AM 51.4309 0.0449 357° North 181 208 5,800 -500 Level FlightAware ADS-B
Sun 04:15:12 AM 51.4366 0.0437 353° North 181 208 5,700 -545 Descending FlightAware ADS-B
Sun 04:15:16 AM 51.4399 0.0425 347° North 182 209 5,700 -750 Level FlightAware ADS-B
Sun 04:15:20 AM 51.4434 0.0394 331° Northwest 183 211 5,600 -667 Descending FlightAware ADS-B
Sun 04:15:25 AM 51.4463 0.0359 323° Northwest 184 212 5,600  Level FlightAware ADS-B
Sun 04:15:32 AM 51.4498 0.0280 306° West 186 214 5,600 -462 Level FlightAware ADS-B
Sun 04:15:38 AM 51.4524 0.0206 299° West 188 216 5,500 -783 Descending FlightAware ADS-B
Sun 04:15:55 AM 51.4592 -0.0004 298° West 187 215 5,300 -750 Descending FlightAware ADS-B
Sun 04:16:10 AM 51.4657 -0.0196 298° West 184 212 5,100 -857 Descending FlightAware ADS-B
Sun 04:16:23 AM 51.4710 -0.0340 301° West 185 213 4,900 -818 Descending FlightAware ADS-B
Sun 04:16:32 AM 51.4747 -0.0450 298° West 186 214 4,800 -706 Descending FlightAware ADS-B
Sun 04:16:40 AM 51.4760 -0.0558 281° West 186 214 4,700 -1,200 Descending FlightAware ADS-B
Sun 04:16:47 AM 51.4764 -0.0669 273° West 187 215 4,500 -1,385 Descending FlightAware ADS-B
Sun 04:16:53 AM 51.4767 -0.0739 274° West 186 214 4,400 -857 Descending FlightAware ADS-B
Sun 04:17:08 AM 51.4782 -0.0942 277° West 183 211 4,200 -1,043 Descending FlightAware ADS-B
Sun 04:17:16 AM 51.4787 -0.1050 274° West 182 209 4,000 -1,250 Descending FlightAware ADS-B
Sun 04:17:32 AM 51.4786 -0.1263 270° West 175 201 3,700 -909 Descending FlightAware ADS-B
Sun 04:17:49 AM 51.4782 -0.1476 268° West 164 189 3,500 -800 Descending FlightAware ADS-B
Sun 04:18:02 AM 51.4781 -0.1634 269° West 162 186 3,300 -857 Descending FlightAware ADS-B
Sun 04:18:17 AM 51.4782 -0.1814 271° West 162 186 3,100 -882 Descending FlightAware ADS-B
Sun 04:18:36 AM 51.4781 -0.2042 270° West 158 182 2,800 -900 Descending FlightAware ADS-B
Sun 04:18:57 AM 51.4781 -0.2298 270° West 157 181 2,500 -923 Descending FlightAware ADS-B
Sun 04:19:15 AM 51.4781 -0.2496 270° West 158 182 2,200 -857 Descending FlightAware ADS-B
Sun 04:19:32 AM 51.4781 -0.2697 270° West 157 181 2,000 -952 Descending FlightAware ADS-B
Sun 04:20:18 AM 51.4780 -0.3251 270° West 158 182 1,200 -875 Descending FlightAware UK
Sun 04:20:20 AM 51.4780 -0.3250 270° West 150 173 1,300 -581 Climbing FlightAware ADS-B
Sun 04:20:49 AM 51.4780 -0.3540 270° West 139 160 900 -913 Descending FlightAware ADS-B
Sun 04:21:06 AM 51.4779 -0.3750 270° West 138 159 600 -857 Descending FlightAware UK
Sun 04:21:24 AM 51.4778 -0.3940 269° West 148 170 400 -480 Descending FlightAware UK
Sun 04:21:31 AM 51.4780 -0.4000 269° West 141 162 400 -545 Level FlightAware ADS-B
Sun 04:21:57 AM 51.4780 -0.4240 270° West 137 158 100 -692 Descending FlightAware ADS-B
Sun 04:22:36 AM 51.4780 -0.4560 270° West 137 158 -154 Descending FlightAware ADS-B
Sun 04:24:47 AM 51.4760 -0.4780 262° West 17 20  Level FlightAware ADS-B
Sun 04:25:39 AM 51.4760 -0.4820 270° West 19 22  Level FlightAware ADS-B
Sun 04:26:08 AM 51.4760 -0.4890 270° West 30 35  Level FlightAware ADS-B
Sun 04:26:16 AM 51.4740 -0.4850 129° Southeast 31 36  Level FlightAware ADS-B
Sun 04:26:47 AM 51.4720 -0.4850 180° South 27 31  Level FlightAware ADS-B
Sun 04:27:25 AM 51.4710 -0.4860 212° Southwest 14 16  Level FlightAware ADS-B
Sun 04:30:00 AM 51.4667 -0.4500 90° East  Level FlightAware Approximate

Login

Don't have an account? Register now (free) for customized features, flight alerts, and more!